<?xml version="1.0" encoding="UTF-8" standalone="no" ?>
<gpx xmlns="http://www.topografix.com/GPX/1/1" xmlns:xsi="http://www.w3.org/2001/XMLSchema-instance" xsi:schemaLocation="http://www.topografix.com/GPX/1/1 http://www.topografix.com/GPX/1/1/gpx.xsd" version="1.1" creator="VisuGPX - https://www.visugpx.com">
  <metadata>
    <name>luzech 6 descentes</name>
    <desc><![CDATA[parcours typé enduro avec de belles descentes]]></desc>
  </metadata>
  <trk>
    <name><![CDATA[2014-04-01-08-18-57]]></name>
    <trkseg>
      <trkpt lat="44.46372" lon="1.29949">
        <ele>125.683</ele>
        <time>2014-04-01T09:29:26Z</time>
      </trkpt>
      <trkpt lat="44.46362" lon="1.29941">
        <ele>127.533</ele>
        <time>2014-04-01T09:29:33Z</time>
      </trkpt>
      <trkpt lat="44.46347" lon="1.29931">
        <ele>129.243</ele>
        <time>2014-04-01T09:29:43Z</time>
      </trkpt>
      <trkpt lat="44.46333" lon="1.29931">
        <ele>129.982</ele>
        <time>2014-04-01T09:29:52Z</time>
      </trkpt>
      <trkpt lat="44.46319" lon="1.2993">
        <ele>131.063</ele>
        <time>2014-04-01T09:30:01Z</time>
      </trkpt>
      <trkpt lat="44.46306" lon="1.29929">
        <ele>131.932</ele>
        <time>2014-04-01T09:30:09Z</time>
      </trkpt>
      <trkpt lat="44.46291" lon="1.29929">
        <ele>133.842</ele>
        <time>2014-04-01T09:30:18Z</time>
      </trkpt>
      <trkpt lat="44.46273" lon="1.2993">
        <ele>135.513</ele>
        <time>2014-04-01T09:30:29Z</time>
      </trkpt>
      <trkpt lat="44.46263" lon="1.2993">
        <ele>136.612</ele>
        <time>2014-04-01T09:30:35Z</time>
      </trkpt>
      <trkpt lat="44.4625" lon="1.29927">
        <ele>138.612</ele>
        <time>2014-04-01T09:30:44Z</time>
      </trkpt>
      <trkpt lat="44.46237" lon="1.29919">
        <ele>141.543</ele>
        <time>2014-04-01T09:30:54Z</time>
      </trkpt>
      <trkpt lat="44.46224" lon="1.29912">
        <ele>144.243</ele>
        <time>2014-04-01T09:31:04Z</time>
      </trkpt>
      <trkpt lat="44.46209" lon="1.29905">
        <ele>147.542</ele>
        <time>2014-04-01T09:31:15Z</time>
      </trkpt>
      <trkpt lat="44.46194" lon="1.29897">
        <ele>149.632</ele>
        <time>2014-04-01T09:31:26Z</time>
      </trkpt>
      <trkpt lat="44.46184" lon="1.2989">
        <ele>151.442</ele>
        <time>2014-04-01T09:31:34Z</time>
      </trkpt>
      <trkpt lat="44.46176" lon="1.29886">
        <ele>152.521</ele>
        <time>2014-04-01T09:31:40Z</time>
      </trkpt>
      <trkpt lat="44.46164" lon="1.2988">
        <ele>152.932</ele>
        <time>2014-04-01T09:31:48Z</time>
      </trkpt>
      <trkpt lat="44.4615" lon="1.29871">
        <ele>155.012</ele>
        <time>2014-04-01T09:31:57Z</time>
      </trkpt>
      <trkpt lat="44.46137" lon="1.29857">
        <ele>156.321</ele>
        <time>2014-04-01T09:32:07Z</time>
      </trkpt>
      <trkpt lat="44.46128" lon="1.29844">
        <ele>157.401</ele>
        <time>2014-04-01T09:32:15Z</time>
      </trkpt>
      <trkpt lat="44.46118" lon="1.29833">
        <ele>159.251</ele>
        <time>2014-04-01T09:32:24Z</time>
      </trkpt>
      <trkpt lat="44.46108" lon="1.29821">
        <ele>160.251</ele>
        <time>2014-04-01T09:32:33Z</time>
      </trkpt>
      <trkpt lat="44.46096" lon="1.29813">
        <ele>162.642</ele>
        <time>2014-04-01T09:32:42Z</time>
      </trkpt>
      <trkpt lat="44.46082" lon="1.29807">
        <ele>165.492</ele>
        <time>2014-04-01T09:32:52Z</time>
      </trkpt>
      <trkpt lat="44.46071" lon="1.29802">
        <ele>167.122</ele>
        <time>2014-04-01T09:33:00Z</time>
      </trkpt>
      <trkpt lat="44.46062" lon="1.29798">
        <ele>169.191</ele>
        <time>2014-04-01T09:33:09Z</time>
      </trkpt>
    </trkseg>
  </trk>
</gpx>